Hovedside
METAR-TAF:

METAR-TAF

Lufthavner :

Namsos lufthavn

Namsos, Norge

breddegrad: 64-28N, lengdegrad: 011-35E, høyde over havet: 0 m

Gjeldene værobservasjon

Denne rapporten ble laget for 1 time og 27 minutter siden, klokken 18:50 UTC
Vind 21 kt fra Vest-sørvest med vindkast opp mot 34 kt
Temperatur 7°C
Luftfuktighet 70%
Trykk 1000 hPa
Sikt 10 km eller mer
Få skyer i en høyde av 2000 ft, Tårnskyer (cumulus).
Brutte skyer i en høyde av 3000 ft
regnbyger i nærheten

METAR: ENNM 221850Z 25021G34KT 9999 VCSH FEW020TCU BKN030 07/02 Q1000

Tid: 22:17 (20:17 UTC)


TAF: fraværende

Værobservasjoner og værvarsel for over 4000 flyplasser (METAR- og TAF-rapporter).

Tilgjengelige stasjoner er representert av de røde og gule prikkene på kartet.

Hold musepekeren over prikken for å se navnet på stasjonen.

Klikk så for å se værobservasjoner og -varsler.

For å forandre kartet kan du klikke på den grønne knappen med svart kryss for å zoome inn, på den grønne knappen med strek for å zoome ut, eller på de grønne pilene for å se tilstøtende kart.


METAR-TAF: